Time;durP1;ratioP1;P1;durP2;ratioP2;P2;SDS_P1;SDS_P2;PMS_P1;PMS_P2;Temp;Humidity;BMP_temperature;BMP_pressure;BME280_temperature;BME280_humidity;BME280_pressure;Samples;Min_cycle;Max_cycle;Signal;HPM_P1;HPM_P2
2022/07/30 00:01:48;;;;;;;6.05;5.60;;;;;;;24.03;49.52;94889.78;5056785;28;20190;-67
2022/07/30 00:04:20;;;;;;;5.65;5.25;;;;;;;23.97;49.65;94891.56;5057329;28;20652;-67
2022/07/30 00:06:51;;;;;;;5.90;5.40;;;;;;;23.94;49.83;94886.03;5056766;28;20303;-67
2022/07/30 00:09:18;;;;;;;5.88;5.38;;;;;;;23.98;49.90;94889.53;5056803;28;20617;-67
2022/07/30 00:11:46;;;;;;;5.75;5.35;;;;;;;23.92;50.17;94885.66;5056207;28;20190;-67
2022/07/30 00:14:14;;;;;;;5.78;5.28;;;;;;;23.88;50.33;94882.16;5056485;28;20194;-67
2022/07/30 00:16:41;;;;;;;6.05;5.10;;;;;;;23.81;50.04;94877.50;5056435;28;20209;-67
2022/07/30 00:19:08;;;;;;;7.18;5.38;;;;;;;23.75;50.52;94882.91;5056427;28;20197;-67
2022/07/30 00:21:40;;;;;;;6.35;5.78;;;;;;;23.74;50.41;94883.34;5055563;28;20201;-67
2022/07/30 00:24:08;;;;;;;5.97;5.38;;;;;;;23.72;50.03;94878.16;5056285;28;20202;-67
2022/07/30 00:26:36;;;;;;;5.65;5.18;;;;;;;23.70;50.36;94880.63;5056302;28;20218;-67
2022/07/30 00:29:04;;;;;;;5.90;5.40;;;;;;;23.68;50.21;94877.47;5055962;28;20205;-67
2022/07/30 00:31:32;;;;;;;6.00;5.60;;;;;;;23.63;50.26;94880.78;5055759;28;20209;-67
2022/07/30 00:33:59;;;;;;;5.30;4.90;;;;;;;23.60;50.22;94876.03;5056462;28;20206;-67
2022/07/30 00:36:27;;;;;;;6.43;5.90;;;;;;;23.61;49.74;94876.84;5056189;28;20194;-68
2022/07/30 00:38:56;;;;;;;5.72;5.22;;;;;;;23.62;49.36;94875.59;5056226;28;20204;-68
2022/07/30 00:41:23;;;;;;;5.70;5.30;;;;;;;23.64;49.40;94882.38;5055908;28;20194;-68
2022/07/30 00:43:51;;;;;;;6.25;5.65;;;;;;;23.63;49.11;94880.00;5055866;28;20193;-68
2022/07/30 00:46:19;;;;;;;5.55;5.15;;;;;;;23.63;49.82;94882.81;5056540;28;20210;-68
2022/07/30 00:48:47;;;;;;;5.50;5.10;;;;;;;23.61;50.51;94876.84;5056004;28;20198;-68
2022/07/30 00:51:16;;;;;;;6.35;5.68;;;;;;;23.58;50.85;94874.91;5055604;28;20197;-68
2022/07/30 00:53:44;;;;;;;5.68;5.18;;;;;;;23.54;50.93;94878.59;5055315;28;20209;-68
2022/07/30 00:56:12;;;;;;;5.53;5.13;;;;;;;23.49;51.15;94873.53;5055551;28;20202;-68
2022/07/30 00:58:40;;;;;;;6.10;5.60;;;;;;;23.46;51.18;94867.97;5055541;28;20204;-68
2022/07/30 01:01:07;;;;;;;5.80;5.40;;;;;;;23.42;51.29;94876.50;5055182;28;20194;-67
2022/07/30 01:03:37;;;;;;;5.40;5.00;;;;;;;23.40;51.49;94869.75;5055407;28;20194;-67
2022/07/30 01:06:05;;;;;;;5.75;5.20;;;;;;;23.35;51.60;94867.44;5055468;28;20320;-67
2022/07/30 01:08:33;;;;;;;5.80;5.40;;;;;;;23.29;51.34;94875.63;5055354;28;20276;-67
2022/07/30 01:11:01;;;;;;;5.10;4.72;;;;;;;23.28;51.10;94876.88;5055297;28;20525;-67
2022/07/30 01:13:34;;;;;;;5.20;4.80;;;;;;;23.29;51.19;94870.00;5055191;28;20212;-67
2022/07/30 01:16:01;;;;;;;5.32;4.82;;;;;;;23.28;50.91;94874.84;5055234;28;20539;-67
2022/07/30 01:19:47;;;;;;;4.85;4.55;;;;;;;23.26;50.98;94871.66;5055721;28;20201;-67
2022/07/30 01:21:23;;;;;;;5.07;4.70;;;;;;;23.22;51.71;94870.97;5054850;28;20202;-68
2022/07/30 01:23:53;;;;;;;5.32;4.93;;;;;;;23.17;51.67;94870.72;5055264;28;20202;-68
2022/07/30 01:26:23;;;;;;;5.53;5.13;;;;;;;23.06;52.01;94863.34;5054846;28;20217;-68
2022/07/30 01:28:54;;;;;;;6.05;4.65;;;;;;;23.03;51.94;94866.25;5054710;28;20193;-68
2022/07/30 01:31:22;;;;;;;5.32;4.82;;;;;;;22.95;52.01;94874.06;5054994;28;20194;-69
2022/07/30 01:33:50;;;;;;;5.50;5.07;;;;;;;22.94;52.05;94866.03;5054836;28;20205;-69
2022/07/30 01:36:21;;;;;;;5.30;4.95;;;;;;;22.94;51.91;94871.66;5054475;28;20629;-69
2022/07/30 01:38:49;;;;;;;5.20;4.80;;;;;;;22.94;52.27;94875.25;5054805;28;20610;-69
2022/07/30 01:41:20;;;;;;;5.57;5.07;;;;;;;22.90;52.36;94874.53;5054699;28;20225;-69
2022/07/30 01:43:50;;;;;;;5.32;4.85;;;;;;;22.88;52.56;94874.19;5054399;28;20197;-68
2022/07/30 01:46:20;;;;;;;5.15;4.75;;;;;;;22.81;52.32;94879.97;5055207;28;20237;-68
2022/07/30 01:48:47;;;;;;;5.20;4.72;;;;;;;22.76;52.57;94872.84;5054876;28;20201;-68
2022/07/30 01:51:17;;;;;;;4.57;4.28;;;;;;;22.76;52.63;94886.09;5054758;28;20208;-68
2022/07/30 01:53:46;;;;;;;5.70;5.15;;;;;;;22.75;52.43;94878.91;5054341;28;20208;-68
2022/07/30 01:56:15;;;;;;;5.55;5.05;;;;;;;22.71;52.62;94876.19;5054687;28;20197;-68
2022/07/30 01:58:43;;;;;;;5.65;5.15;;;;;;;22.67;52.75;94877.50;5054708;28;20540;-68
2022/07/30 02:01:14;;;;;;;5.32;4.93;;;;;;;22.66;52.89;94879.53;5054406;28;20571;-68
2022/07/30 02:03:42;;;;;;;5.38;4.88;;;;;;;22.63;52.88;94869.16;5055225;28;20193;-68
2022/07/30 02:06:11;;;;;;;5.38;4.72;;;;;;;22.61;53.00;94874.41;5054649;28;20202;-68
2022/07/30 02:08:42;;;;;;;5.47;4.97;;;;;;;22.57;52.77;94870.88;5055278;28;20265;-68
2022/07/30 02:11:10;;;;;;;5.40;5.00;;;;;;;22.51;52.88;94869.81;5054307;28;20208;-68
2022/07/30 02:13:43;;;;;;;5.38;4.97;;;;;;;22.45;53.29;94872.34;5055133;28;20182;-68
2022/07/30 02:16:24;;;;;;;5.60;5.20;;;;;;;22.43;53.61;94866.34;5054880;28;20186;-68
2022/07/30 02:18:57;;;;;;;5.80;5.30;;;;;;;22.48;53.59;94873.50;5055141;28;20186;-68
2022/07/30 02:21:24;;;;;;;5.50;5.00;;;;;;;22.45;53.66;94863.91;5055010;28;20190;-68
2022/07/30 02:23:52;;;;;;;6.00;5.45;;;;;;;22.42;53.80;94864.78;5055074;28;20186;-68
2022/07/30 02:26:23;;;;;;;4.88;4.55;;;;;;;22.41;54.08;94856.81;5054393;28;20259;-68
2022/07/30 02:28:57;;;;;;;6.13;5.40;;;;;;;22.39;53.96;94862.84;5054088;28;20605;-68
2022/07/30 02:31:27;;;;;;;5.75;5.25;;;;;;;22.39;53.40;94862.84;5053913;28;20231;-68
2022/07/30 02:33:58;;;;;;;5.85;5.45;;;;;;;22.40;53.19;94860.81;5055005;28;20193;-68
2022/07/30 02:36:27;;;;;;;5.80;5.20;;;;;;;22.41;53.55;94860.41;5055149;28;20221;-68
2022/07/30 02:38:54;;;;;;;5.85;5.28;;;;;;;22.36;54.14;94858.09;5055025;28;20181;-68
2022/07/30 02:41:24;;;;;;;5.25;4.85;;;;;;;22.31;54.36;94853.78;5054076;28;20200;-68
2022/07/30 02:43:52;;;;;;;6.10;5.50;;;;;;;22.24;54.42;94861.56;5054656;28;20186;-68
2022/07/30 02:46:22;;;;;;;5.68;5.25;;;;;;;22.20;54.56;94858.03;5057363;28;20189;-68
2022/07/30 02:48:57;;;;;;;5.80;5.30;;;;;;;22.19;54.99;94859.28;5058200;28;20194;-68
2022/07/30 02:51:25;;;;;;;5.78;5.28;;;;;;;22.14;54.84;94868.16;5058527;28;20276;-68
2022/07/30 02:53:53;;;;;;;5.43;5.03;;;;;;;22.05;55.31;94860.31;5057851;28;20219;-68
2022/07/30 02:56:23;;;;;;;5.80;5.30;;;;;;;22.03;55.54;94849.50;5058210;28;20205;-68
2022/07/30 02:58:50;;;;;;;7.00;5.30;;;;;;;21.97;55.21;94853.25;5058782;28;20205;-67
2022/07/30 03:01:19;;;;;;;6.03;5.07;;;;;;;21.97;55.52;94854.06;5057668;28;20208;-68
2022/07/30 03:03:50;;;;;;;5.82;5.25;;;;;;;21.96;55.54;94852.47;5058571;28;20189;-68
2022/07/30 03:06:22;;;;;;;5.53;5.03;;;;;;;21.98;55.55;94850.03;5058994;28;20194;-68
2022/07/30 03:08:50;;;;;;;5.82;5.32;;;;;;;21.99;55.17;94848.00;5058298;28;20181;-68
2022/07/30 03:11:19;;;;;;;6.22;5.65;;;;;;;21.97;55.20;94848.47;5058533;28;20201;-68
2022/07/30 03:13:47;;;;;;;5.80;5.30;;;;;;;21.93;55.33;94844.91;5058449;28;20193;-68
2022/07/30 03:16:17;;;;;;;6.05;5.65;;;;;;;21.90;55.87;94845.78;5058191;28;20194;-68
2022/07/30 03:18:45;;;;;;;5.63;5.20;;;;;;;21.90;55.45;94837.38;5057661;28;20201;-68
2022/07/30 03:21:16;;;;;;;6.57;5.95;;;;;;;21.88;55.69;94843.41;5057571;28;20251;-68
2022/07/30 03:23:50;;;;;;;6.50;5.80;;;;;;;21.81;56.06;94842.75;5057287;28;20210;-68
2022/07/30 03:26:20;;;;;;;6.97;6.38;;;;;;;21.79;56.19;94848.03;5057095;28;20219;-68
2022/07/30 03:28:49;;;;;;;5.82;5.28;;;;;;;21.72;56.07;94850.97;5056933;28;20206;-68
2022/07/30 03:31:17;;;;;;;5.72;5.22;;;;;;;21.67;56.27;94849.44;5058017;28;20229;-68
2022/07/30 03:33:47;;;;;;;5.88;5.35;;;;;;;21.64;56.43;94847.47;5056900;28;20261;-68
2022/07/30 03:36:15;;;;;;;6.50;5.90;;;;;;;21.56;56.53;94855.25;5057112;28;20247;-67
2022/07/30 03:38:46;;;;;;;7.03;5.78;;;;;;;21.51;56.84;94854.97;5057677;28;20190;-67
2022/07/30 03:41:14;;;;;;;6.68;5.95;;;;;;;21.51;56.64;94849.34;5057641;28;20204;-67
2022/07/30 03:43:44;;;;;;;6.63;6.03;;;;;;;21.52;56.45;94859.34;5057899;28;20516;-67
2022/07/30 03:46:12;;;;;;;7.03;6.18;;;;;;;21.54;56.72;94856.91;5057896;28;20202;-67
2022/07/30 03:48:38;;;;;;;6.25;5.75;;;;;;;21.52;57.07;94859.34;5057049;28;20244;-67
2022/07/30 03:51:09;;;;;;;6.20;5.60;;;;;;;21.55;56.84;94864.09;5056516;28;20205;-67
2022/07/30 03:53:36;;;;;;;6.20;5.60;;;;;;;21.57;57.06;94870.09;5056737;28;20244;-67
2022/07/30 03:56:07;;;;;;;6.18;5.57;;;;;;;21.55;57.69;94864.88;5056721;28;20200;-68
2022/07/30 03:58:38;;;;;;;6.53;5.90;;;;;;;21.53;56.99;94872.97;5056646;28;20315;-68
2022/07/30 04:01:06;;;;;;;6.32;5.72;;;;;;;21.56;56.58;94874.88;5056954;28;20266;-67
2022/07/30 04:03:34;;;;;;;6.40;5.80;;;;;;;21.62;56.48;94875.19;5056558;28;20537;-68
2022/07/30 04:06:01;;;;;;;7.20;5.88;;;;;;;21.60;57.02;94872.00;5057804;28;20194;-68
2022/07/30 04:08:30;;;;;;;8.30;6.32;;;;;;;21.58;57.72;94874.47;5057182;28;20201;-68
2022/07/30 04:10:58;;;;;;;7.05;6.22;;;;;;;21.58;58.09;94874.47;5057377;28;20186;-68
2022/07/30 04:13:26;;;;;;;7.10;5.95;;;;;;;21.65;57.68;94873.56;5057106;28;20209;-68
2022/07/30 04:16:00;;;;;;;7.60;6.10;;;;;;;21.64;58.00;94867.13;5056907;28;20209;-68
2022/07/30 04:18:27;;;;;;;6.53;5.93;;;;;;;21.59;58.24;94873.25;5056473;28;20201;-67
2022/07/30 04:20:54;;;;;;;9.15;6.53;;;;;;;21.61;58.17;94877.22;5057087;28;20202;-68
2022/07/30 04:23:21;;;;;;;7.05;5.93;;;;;;;21.65;57.86;94882.75;5056275;28;20205;-68
2022/07/30 04:25:50;;;;;;;6.65;5.78;;;;;;;21.65;57.17;94876.34;5056226;28;20200;-68
2022/07/30 04:28:19;;;;;;;6.00;5.47;;;;;;;21.66;56.85;94883.56;5057223;28;20224;-68
2022/07/30 04:30:48;;;;;;;5.85;5.30;;;;;;;21.67;56.04;94880.31;5056904;28;20190;-68
2022/07/30 04:33:16;;;;;;;5.80;5.30;;;;;;;21.67;55.51;94883.09;5055829;28;20244;-67
2022/07/30 04:35:45;;;;;;;5.90;5.38;;;;;;;21.68;55.43;94881.91;5055957;28;20206;-67
2022/07/30 04:38:13;;;;;;;5.88;5.28;;;;;;;21.71;55.52;94892.25;5056231;28;20197;-68
2022/07/30 04:40:41;;;;;;;5.80;5.10;;;;;;;21.72;55.01;94893.84;5055758;28;20202;-67
2022/07/30 04:43:09;;;;;;;5.90;5.40;;;;;;;21.70;55.33;94893.47;5056050;28;20198;-68
2022/07/30 04:45:44;;;;;;;5.95;5.35;;;;;;;21.73;55.19;94892.63;5055851;28;20194;-68
2022/07/30 04:48:17;;;;;;;5.85;5.32;;;;;;;21.78;55.26;94894.13;5056172;28;20221;-68
2022/07/30 04:50:47;;;;;;;5.85;5.35;;;;;;;21.80;55.19;94897.31;5056597;28;20182;-68
2022/07/30 04:53:14;;;;;;;6.30;5.70;;;;;;;21.82;55.01;94895.69;5055850;28;20211;-68
2022/07/30 04:55:45;;;;;;;6.18;5.65;;;;;;;21.83;54.92;94891.63;5055529;28;20621;-68
2022/07/30 04:58:15;;;;;;;5.80;5.38;;;;;;;21.88;55.19;94881.91;5056171;28;20186;-68
2022/07/30 05:00:44;;;;;;;6.10;5.60;;;;;;;21.88;55.25;94876.31;5056188;28;20521;-68
2022/07/30 05:03:14;;;;;;;7.25;5.68;;;;;;;21.91;55.39;94869.03;5055619;28;20206;-68
2022/07/30 05:05:43;;;;;;;5.65;5.20;;;;;;;21.93;55.69;94872.19;5055072;28;20251;-68
2022/07/30 05:08:12;;;;;;;6.63;6.03;;;;;;;21.96;55.53;94871.34;5054944;28;20221;-68
2022/07/30 05:10:40;;;;;;;5.70;5.30;;;;;;;21.99;55.71;94876.88;5055345;28;20197;-68
2022/07/30 05:13:11;;;;;;;6.22;5.72;;;;;;;21.99;55.93;94882.50;5055403;28;20262;-68
2022/07/30 05:15:43;;;;;;;5.60;5.20;;;;;;;22.03;56.24;94885.22;5054990;28;20514;-68
2022/07/30 05:18:12;;;;;;;5.95;5.40;;;;;;;22.08;55.61;94882.72;5056083;28;20202;-68
2022/07/30 05:20:42;;;;;;;6.28;5.68;;;;;;;22.13;55.72;94878.63;5055562;28;20198;-68
2022/07/30 05:23:11;;;;;;;5.88;5.38;;;;;;;22.16;55.65;94877.00;5055882;28;20201;-68
2022/07/30 05:25:42;;;;;;;5.63;5.13;;;;;;;22.20;55.67;94880.50;5055225;28;20205;-68
2022/07/30 05:28:10;;;;;;;5.72;5.13;;;;;;;22.19;54.90;94879.72;5055232;28;20209;-68
2022/07/30 05:30:38;;;;;;;5.85;5.25;;;;;;;22.22;54.81;94883.66;5055900;28;20194;-67
2022/07/30 05:33:06;;;;;;;6.65;6.05;;;;;;;22.25;54.02;94882.81;5054695;28;20244;-67
2022/07/30 05:35:33;;;;;;;5.80;5.30;;;;;;;22.26;53.90;94876.78;5055889;28;20185;-67
2022/07/30 05:38:03;;;;;;;7.57;5.50;;;;;;;22.26;53.91;94882.38;5055595;28;20543;-67
2022/07/30 05:40:31;;;;;;;5.90;5.50;;;;;;;22.28;53.76;94876.31;5055545;28;20189;-67
2022/07/30 05:42:59;;;;;;;5.90;5.45;;;;;;;22.32;53.94;94885.47;5054674;28;20197;-67
2022/07/30 05:45:27;;;;;;;5.82;5.18;;;;;;;22.35;53.98;94879.78;5054880;28;20198;-67
2022/07/30 05:47:54;;;;;;;5.75;5.35;;;;;;;22.39;54.54;94881.72;5055417;28;20209;-67
2022/07/30 05:50:23;;;;;;;6.10;5.60;;;;;;;22.43;54.44;94890.84;5055721;28;20190;-68
2022/07/30 05:52:51;;;;;;;6.38;5.80;;;;;;;22.51;54.59;94883.84;5055506;28;20516;-68
2022/07/30 05:55:20;;;;;;;6.55;5.70;;;;;;;22.57;54.22;94885.72;5055469;28;20617;-68
2022/07/30 05:57:48;;;;;;;6.90;6.30;;;;;;;22.64;54.03;94887.59;5055401;28;20209;-68
2022/07/30 06:00:18;;;;;;;6.05;5.53;;;;;;;22.67;54.05;94886.72;5054356;28;20193;-68
2022/07/30 06:02:45;;;;;;;6.25;5.65;;;;;;;22.68;54.33;94879.06;5055518;28;20205;-68
2022/07/30 06:05:13;;;;;;;6.72;6.13;;;;;;;22.72;53.96;94888.22;5054578;28;20234;-68
2022/07/30 06:07:41;;;;;;;6.70;6.10;;;;;;;22.73;54.04;94886.97;5054990;28;20193;-68
2022/07/30 06:10:08;;;;;;;6.13;5.72;;;;;;;22.82;53.69;94899.22;5055434;28;20182;-68
2022/07/30 06:12:38;;;;;;;6.75;6.13;;;;;;;22.90;53.81;94890.63;5054461;28;20198;-68
2022/07/30 06:15:05;;;;;;;6.70;6.15;;;;;;;22.92;53.87;94900.22;5053903;28;20246;-68
2022/07/30 06:17:33;;;;;;;6.32;5.93;;;;;;;22.97;54.05;94894.06;5055244;28;20185;-68
2022/07/30 06:20:01;;;;;;;6.50;5.90;;;;;;;23.01;54.24;94896.81;5053961;28;20548;-68
2022/07/30 06:22:29;;;;;;;6.65;6.00;;;;;;;23.07;54.10;94895.06;5054413;28;20209;-68
2022/07/30 06:24:56;;;;;;;6.20;5.68;;;;;;;23.10;53.92;94890.59;5054319;28;20198;-68
2022/07/30 06:27:24;;;;;;;6.50;5.90;;;;;;;23.13;53.88;94886.88;5054686;28;20236;-68
2022/07/30 06:29:53;;;;;;;6.97;6.28;;;;;;;23.18;53.63;94880.75;5054824;28;20209;-69
2022/07/30 06:32:23;;;;;;;6.35;5.72;;;;;;;23.29;53.77;94875.63;5054035;28;20244;-68
2022/07/30 06:34:53;;;;;;;6.70;6.07;;;;;;;23.35;53.41;94871.06;5054200;28;20628;-69
2022/07/30 06:37:24;;;;;;;6.68;6.07;;;;;;;23.39;53.19;94873.78;5054404;28;20289;-68
2022/07/30 06:39:51;;;;;;;6.70;6.20;;;;;;;23.41;53.29;94874.91;5053772;28;20205;-68
2022/07/30 06:42:20;;;;;;;6.75;6.20;;;;;;;23.41;53.41;94874.13;5054237;28;20202;-68
2022/07/30 06:44:48;;;;;;;6.95;6.28;;;;;;;23.45;53.09;94872.00;5054106;28;20198;-68
2022/07/30 06:47:24;;;;;;;6.65;6.05;;;;;;;23.50;53.09;94861.03;5054083;28;20201;-68
2022/07/30 06:49:52;;;;;;;6.68;5.97;;;;;;;23.58;52.39;94860.84;5054342;28;20213;-68
2022/07/30 06:52:20;;;;;;;5.85;5.25;;;;;;;23.61;52.39;94852.28;5054855;28;20182;-68
2022/07/30 06:54:48;;;;;;;7.13;6.28;;;;;;;23.69;52.84;94856.53;5054664;28;20179;-68
2022/07/30 06:57:15;;;;;;;6.30;5.80;;;;;;;23.73;52.42;94845.94;5054811;28;20186;-68
2022/07/30 06:59:43;;;;;;;6.40;5.90;;;;;;;23.81;52.82;94843.72;5054745;28;20178;-69
2022/07/30 07:02:12;;;;;;;7.25;6.07;;;;;;;23.87;52.12;94841.94;5055313;28;20182;-68
2022/07/30 07:04:41;;;;;;;9.38;5.70;;;;;;;23.91;51.64;94839.03;5054178;28;20583;-69
2022/07/30 07:07:08;;;;;;;6.57;5.97;;;;;;;24.03;52.60;94846.72;5053870;28;20205;-69
2022/07/30 07:09:36;;;;;;;6.38;5.75;;;;;;;24.17;52.54;94845.53;5053658;28;20252;-69
2022/07/30 07:12:09;;;;;;;5.90;5.30;;;;;;;24.30;52.09;94842.75;5054416;28;20210;-69
2022/07/30 07:14:37;;;;;;;8.10;5.70;;;;;;;24.40;51.42;94839.66;5055106;28;20186;-69
2022/07/30 07:17:05;;;;;;;7.15;5.18;;;;;;;24.52;50.98;94832.44;5053714;28;20202;-69
2022/07/30 07:19:32;;;;;;;6.85;5.63;;;;;;;24.63;50.43;94832.91;5053837;28;20198;-71
2022/07/30 07:22:01;;;;;;;7.85;6.03;;;;;;;24.74;50.00;94841.03;5054752;28;20202;-69
2022/07/30 07:24:29;;;;;;;6.28;5.55;;;;;;;24.80;50.15;94841.25;5054257;28;20190;-69
2022/07/30 07:26:57;;;;;;;6.25;5.75;;;;;;;24.81;49.27;94840.03;5054699;28;20200;-69
2022/07/30 07:29:25;;;;;;;6.57;5.82;;;;;;;24.80;50.11;94841.25;5054519;28;20221;-69
2022/07/30 07:31:53;;;;;;;6.25;5.72;;;;;;;24.80;49.98;94839.22;5055590;28;20233;-69
2022/07/30 07:34:24;;;;;;;5.88;5.35;;;;;;;24.82;50.07;94842.38;5058458;28;20190;-69
2022/07/30 07:36:52;;;;;;;6.07;5.20;;;;;;;24.88;49.64;94839.78;5057102;28;20201;-69
2022/07/30 07:39:21;;;;;;;6.82;6.13;;;;;;;24.94;48.67;94841.56;5057963;28;20193;-69
2022/07/30 07:41:50;;;;;;;6.00;5.40;;;;;;;24.95;49.29;94843.19;5058010;28;20193;-69
2022/07/30 07:44:17;;;;;;;6.35;5.78;;;;;;;25.02;49.09;94841.34;5057714;28;20182;-69
2022/07/30 07:46:43;;;;;;;6.25;5.65;;;;;;;25.08;49.27;94842.38;5057381;28;20198;-69
2022/07/30 07:49:11;;;;;;;5.88;5.45;;;;;;;25.14;48.58;94834.94;5057788;28;20206;-66
2022/07/30 07:51:39;;;;;;;6.45;5.90;;;;;;;25.07;48.61;94838.75;5056852;28;20193;-67
2022/07/30 07:54:06;;;;;;;6.18;5.68;;;;;;;25.00;48.94;94830.53;5057235;28;20260;-69
2022/07/30 07:56:38;;;;;;;7.15;6.18;;;;;;;24.93;49.39;94825.91;5057743;28;20194;-69
2022/07/30 07:59:07;;;;;;;6.28;5.78;;;;;;;24.83;49.54;94834.69;5056978;28;20288;-69
2022/07/30 08:01:35;;;;;;;6.70;6.10;;;;;;;24.76;50.09;94837.75;5056771;28;20263;-69
2022/07/30 08:04:03;;;;;;;6.28;5.72;;;;;;;24.70;50.50;94834.72;5057230;28;20186;-69
2022/07/30 08:06:35;;;;;;;7.22;6.72;;;;;;;24.70;50.15;94835.50;5056590;28;20209;-69
2022/07/30 08:09:04;;;;;;;6.25;5.65;;;;;;;24.68;50.15;94832.31;5057140;28;20209;-69
2022/07/30 08:11:31;;;;;;;6.68;6.18;;;;;;;24.63;49.89;94820.84;5057332;28;20182;-69
2022/07/30 08:14:01;;;;;;;6.25;5.78;;;;;;;24.64;51.83;94822.41;5056915;28;20197;-69
2022/07/30 08:16:29;;;;;;;7.70;6.15;;;;;;;24.72;51.77;94826.56;5056648;28;20210;-69
2022/07/30 08:18:58;;;;;;;6.70;6.10;;;;;;;24.85;50.90;94821.72;5056148;28;20617;-69
2022/07/30 08:21:25;;;;;;;7.22;6.40;;;;;;;24.92;50.05;94824.31;5056495;28;20259;-69
2022/07/30 08:23:52;;;;;;;6.40;5.90;;;;;;;24.90;49.18;94821.16;5057208;28;20197;-68
2022/07/30 08:26:22;;;;;;;6.28;5.78;;;;;;;24.92;50.32;94823.53;5056634;28;20628;-68
2022/07/30 08:28:51;;;;;;;6.90;6.30;;;;;;;25.01;49.20;94817.19;5057024;28;20201;-68
2022/07/30 08:31:21;;;;;;;7.07;6.50;;;;;;;24.95;49.01;94817.78;5057070;28;20193;-68
2022/07/30 08:33:48;;;;;;;6.70;6.10;;;;;;;24.93;49.08;94825.13;5055848;28;20233;-68
2022/07/30 08:36:19;;;;;;;6.50;6.00;;;;;;;24.95;49.25;94809.31;5057185;28;20201;-68
2022/07/30 08:38:49;;;;;;;7.65;6.80;;;;;;;24.97;50.63;94808.84;5055691;28;20208;-67
2022/07/30 08:41:18;;;;;;;6.88;6.28;;;;;;;25.08;50.16;94812.09;5055949;28;20240;-67
2022/07/30 08:43:47;;;;;;;6.35;5.85;;;;;;;25.27;48.63;94809.50;5056069;28;20193;-67
2022/07/30 08:46:18;;;;;;;7.07;6.50;;;;;;;25.33;49.59;94800.00;5056296;28;20620;-67
2022/07/30 08:48:47;;;;;;;7.80;6.57;;;;;;;25.44;49.00;94797.59;5056552;28;20228;-68
2022/07/30 08:51:16;;;;;;;7.07;5.97;;;;;;;25.46;49.04;94788.69;5056897;28;20224;-68
2022/07/30 08:53:44;;;;;;;6.75;6.15;;;;;;;25.53;48.61;94793.28;5056523;28;20182;-68
2022/07/30 08:56:12;;;;;;;6.07;5.57;;;;;;;25.54;47.66;94790.00;5055633;28;20253;-68
2022/07/30 08:58:40;;;;;;;6.30;5.80;;;;;;;25.68;47.67;94789.50;5056074;28;20201;-68
2022/07/30 09:01:09;;;;;;;6.35;5.72;;;;;;;25.82;46.17;94781.81;5055624;28;20292;-68
2022/07/30 09:03:38;;;;;;;6.75;6.15;;;;;;;25.95;45.62;94782.50;5055704;28;20214;-68
2022/07/30 09:06:08;;;;;;;6.50;6.00;;;;;;;26.10;45.13;94777.13;5056044;28;20186;-68
2022/07/30 09:08:36;;;;;;;6.22;5.72;;;;;;;26.16;44.85;94784.53;5055612;28;20194;-67
2022/07/30 09:11:04;;;;;;;6.57;5.93;;;;;;;26.38;44.63;94776.03;5056270;28;20192;-68
2022/07/30 09:13:34;;;;;;;6.20;5.70;;;;;;;26.34;43.81;94777.41;5055949;28;20212;-68
2022/07/30 09:16:03;;;;;;;7.18;6.57;;;;;;;26.23;45.06;94768.56;5056392;28;20197;-68
2022/07/30 09:18:33;;;;;;;6.25;5.72;;;;;;;26.37;44.43;94759.53;5055836;28;20189;-68
2022/07/30 09:21:02;;;;;;;6.72;6.22;;;;;;;26.36;45.65;94758.75;5055887;28;20186;-68
2022/07/30 09:23:33;;;;;;;6.10;5.60;;;;;;;26.53;43.48;94752.88;5054766;28;20206;-68
2022/07/30 09:26:03;;;;;;;6.70;5.70;;;;;;;26.73;43.32;94758.16;5055728;28;20198;-68
2022/07/30 09:28:33;;;;;;;6.20;5.70;;;;;;;26.81;43.84;94748.91;5055548;28;20200;-68
2022/07/30 09:31:02;;;;;;;6.55;5.95;;;;;;;26.82;43.36;94753.28;5055252;28;20533;-68
2022/07/30 09:33:37;;;;;;;6.22;5.72;;;;;;;26.99;42.27;94744.53;5055329;28;20233;-68
2022/07/30 09:36:05;;;;;;;6.20;5.70;;;;;;;27.03;41.72;94750.84;5055731;28;20188;-68
2022/07/30 09:38:46;;;;;;;6.40;5.90;;;;;;;27.02;42.02;94746.44;5055305;28;20189;-68
2022/07/30 09:41:15;;;;;;;6.32;5.82;;;;;;;27.13;43.01;94746.81;5054863;28;20307;-68
2022/07/30 09:43:45;;;;;;;7.57;6.88;;;;;;;27.08;43.29;94745.34;5055342;28;20632;-68
2022/07/30 09:46:12;;;;;;;7.15;6.55;;;;;;;27.21;42.28;94745.25;5055233;28;20554;-68
2022/07/30 09:48:41;;;;;;;6.07;5.50;;;;;;;27.37;42.69;94746.97;5054838;28;20259;-68
2022/07/30 09:51:08;;;;;;;5.85;5.45;;;;;;;27.50;42.05;94736.28;5055289;28;20541;-68
2022/07/30 09:53:36;;;;;;;6.78;6.07;;;;;;;27.62;42.04;94733.78;5055474;28;20193;-68
2022/07/30 09:56:28;;;;;;;6.95;6.35;;;;;;;27.63;42.84;94721.19;5055721;28;20190;-71
2022/07/30 09:58:55;;;;;;;6.80;6.30;;;;;;;27.60;43.23;94729.38;5055508;28;20212;-68
2022/07/30 10:01:22;;;;;;;6.75;6.15;;;;;;;27.85;42.57;94730.31;5055260;28;20601;-68
2022/07/30 10:03:49;;;;;;;6.65;6.05;;;;;;;28.07;42.42;94721.66;5054531;28;20196;-68
2022/07/30 10:06:17;;;;;;;6.53;6.05;;;;;;;27.97;42.22;94726.53;5054973;28;20296;-68
2022/07/30 10:08:49;;;;;;;7.28;6.68;;;;;;;27.96;41.11;94722.13;5055324;28;20197;-68
2022/07/30 10:11:21;;;;;;;6.28;5.68;;;;;;;28.24;38.94;94711.50;5054501;28;20542;-68
2022/07/30 10:13:54;;;;;;;6.13;5.70;;;;;;;28.30;39.54;94715.25;5054390;28;20221;-68
2022/07/30 10:16:26;;;;;;;7.20;6.50;;;;;;;28.16;41.48;94718.78;5054612;28;20216;-69
2022/07/30 10:18:56;;;;;;;9.13;8.38;;;;;;;28.10;41.08;94705.72;5054593;28;20200;-68
2022/07/30 10:21:23;;;;;;;8.18;7.57;;;;;;;28.07;41.00;94698.97;5054531;28;20286;-68
2022/07/30 10:23:52;;;;;;;6.40;5.90;;;;;;;28.24;40.70;94688.81;5054890;28;20199;-68
2022/07/30 10:26:24;;;;;;;6.47;5.97;;;;;;;28.35;40.75;94682.63;5055274;28;20190;-68
2022/07/30 10:28:53;;;;;;;7.03;6.43;;;;;;;28.66;39.27;94692.94;5055061;28;20284;-68
2022/07/30 10:31:21;;;;;;;7.05;6.40;;;;;;;28.82;40.12;94688.91;5055195;28;20189;-68
2022/07/30 10:33:49;;;;;;;8.05;7.45;;;;;;;29.08;38.82;94683.56;5053901;28;20241;-68
2022/07/30 10:36:17;;;;;;;7.45;6.85;;;;;;;29.09;40.00;94683.09;5054216;28;20205;-67
2022/07/30 10:38:48;;;;;;;7.03;6.40;;;;;;;29.19;39.16;94678.88;5053940;28;20232;-68
2022/07/30 10:41:30;;;;;;;7.25;6.70;;;;;;;29.07;39.54;94682.00;5054113;28;20247;-68
2022/07/30 10:44:13;;;;;;;7.15;6.65;;;;;;;29.06;38.49;94680.44;5037591;28;20241;-68
2022/07/30 10:46:49;;;;;;;7.15;6.50;;;;;;;29.15;39.25;94669.00;5055101;28;20240;-67
2022/07/30 10:49:17;;;;;;;7.82;7.07;;;;;;;29.23;38.28;94671.00;5054042;28;20216;-68
2022/07/30 10:51:48;;;;;;;7.82;7.13;;;;;;;29.44;38.51;94671.91;5054104;28;20197;-68
2022/07/30 10:54:43;;;;;;;8.95;8.18;;;;;;;29.67;38.15;94670.34;5054941;28;20264;-68
2022/07/30 10:57:13;;;;;;;7.97;7.20;;;;;;;29.81;35.79;94665.91;5054159;28;20198;-68
2022/07/30 11:00:12;;;;;;;8.18;7.38;;;;;;;29.77;36.59;94653.19;5054519;28;20185;-68
2022/07/30 11:02:40;;;;;;;7.32;6.63;;;;;;;29.70;37.54;94649.47;5054880;28;20293;-68
2022/07/30 11:05:27;;;;;;;8.13;7.00;;;;;;;29.69;38.57;94647.09;5054772;28;20189;-68
2022/07/30 11:07:54;;;;;;;7.80;7.15;;;;;;;29.44;38.37;94649.19;5057162;28;20204;-68
2022/07/30 11:10:40;;;;;;;8.23;7.50;;;;;;;29.44;37.32;94631.38;5058858;28;20206;-68
2022/07/30 11:13:08;;;;;;;7.15;6.45;;;;;;;29.34;38.17;94632.72;5057939;28;20201;-68
2022/07/30 11:16:03;;;;;;;7.40;6.90;;;;;;;29.15;38.38;94630.03;5041657;28;20201;-68
2022/07/30 11:18:30;;;;;;;7.28;6.68;;;;;;;29.23;38.05;94627.59;5057493;28;20556;-68
2022/07/30 11:21:19;;;;;;;7.30;6.70;;;;;;;29.22;38.19;94628.88;5058342;28;20209;-68
2022/07/30 11:23:47;;;;;;;8.23;7.53;;;;;;;29.35;37.72;94617.25;5058355;28;20260;-68
2022/07/30 11:26:49;;;;;;;7.38;6.78;;;;;;;29.32;37.73;94621.84;5057907;28;20194;-68
2022/07/30 11:29:39;;;;;;;7.38;6.78;;;;;;;29.23;37.39;94608.53;5051438;28;20251;-68
2022/07/30 11:32:30;;;;;;;7.35;6.78;;;;;;;29.40;37.59;94610.88;5057769;28;20328;-68
2022/07/30 11:35:17;;;;;;;8.52;7.65;;;;;;;29.71;37.76;94616.94;5057543;28;20208;-68
2022/07/30 11:38:01;;;;;;;7.88;7.28;;;;;;;29.78;37.28;94609.25;5058142;28;20189;-68
2022/07/30 11:40:29;;;;;;;7.75;7.10;;;;;;;30.10;35.06;94605.41;5057233;28;20213;-68
2022/07/30 11:43:19;;;;;;;9.18;7.30;;;;;;;30.12;35.59;94605.72;5057183;28;20221;-68
2022/07/30 11:45:49;;;;;;;8.25;7.60;;;;;;;29.93;36.60;94601.53;5056840;28;20209;-68
2022/07/30 11:48:20;;;;;;;8.02;7.32;;;;;;;29.80;36.35;94593.31;5058041;28;20425;-68